Time;durP1;ratioP1;P1;durP2;ratioP2;P2;SDS_P1;SDS_P2;PMS_P1;PMS_P2;Temp;Humidity;BMP_temperature;BMP_pressure;BME280_temperature;BME280_humidity;BME280_pressure;Samples;Min_cycle;Max_cycle;Signal;HPM_P1;HPM_P2
2021/06/17 00:01:25;;;;;;;2.92;1.80;;;;;;;16.00;100.00;93399.47;5070985;28;20059;-80
2021/06/17 00:03:52;;;;;;;3.47;2.38;;;;;;;15.99;100.00;93399.69;5070739;28;20051;-80
2021/06/17 00:06:18;;;;;;;2.55;1.80;;;;;;;15.96;100.00;93398.38;5070358;28;20492;-81
2021/06/17 00:08:45;;;;;;;2.65;1.55;;;;;;;15.93;100.00;93400.66;5070568;28;20052;-81
2021/06/17 00:11:12;;;;;;;4.05;2.13;;;;;;;15.86;100.00;93387.84;5070784;28;20051;-81
2021/06/17 00:13:40;;;;;;;2.38;1.50;;;;;;;15.80;100.00;93389.59;5070800;28;20048;-79
2021/06/17 00:16:09;;;;;;;2.65;1.70;;;;;;;15.73;100.00;93383.75;5070760;28;20053;-79
2021/06/17 00:18:36;;;;;;;4.25;1.73;;;;;;;15.69;100.00;93391.22;5070403;28;20969;-79
2021/06/17 00:21:03;;;;;;;2.58;1.90;;;;;;;15.65;100.00;93386.75;5070808;28;20443;-79
2021/06/17 00:23:31;;;;;;;2.60;1.85;;;;;;;15.52;100.00;93385.28;5070611;28;20114;-79
2021/06/17 00:25:58;;;;;;;5.22;2.75;;;;;;;15.34;100.00;93374.94;5070134;28;20048;-80
2021/06/17 00:28:26;;;;;;;3.63;2.33;;;;;;;15.40;100.00;93377.56;5070556;28;20550;-80
2021/06/17 00:30:54;;;;;;;3.15;1.70;;;;;;;15.32;100.00;93379.53;5070659;28;20044;-80
2021/06/17 00:33:21;;;;;;;4.18;2.17;;;;;;;15.35;100.00;93381.66;5070294;28;20496;-80
2021/06/17 00:35:48;;;;;;;2.60;1.63;;;;;;;15.30;100.00;93373.81;5070141;28;20496;-80
2021/06/17 00:38:16;;;;;;;3.13;1.73;;;;;;;15.27;100.00;93378.69;5070025;28;20053;-79
2021/06/17 00:40:44;;;;;;;3.08;2.00;;;;;;;15.12;100.00;93356.72;5070042;28;20063;-79
2021/06/17 00:43:11;;;;;;;2.40;1.55;;;;;;;15.20;100.00;93376.25;5070082;28;20649;-80
2021/06/17 00:45:42;;;;;;;3.88;2.00;;;;;;;15.15;100.00;93374.38;5070409;28;20442;-79
2021/06/17 00:48:12;;;;;;;3.40;1.77;;;;;;;15.10;100.00;93374.28;5069969;28;20055;-79
2021/06/17 00:50:42;;;;;;;3.80;2.42;;;;;;;15.03;100.00;93371.84;5069816;28;20052;-79
2021/06/17 00:53:10;;;;;;;2.65;2.15;;;;;;;14.98;100.00;93371.75;5070188;28;20044;-80
2021/06/17 00:55:39;;;;;;;3.25;1.88;;;;;;;14.93;100.00;93366.47;5069621;28;20094;-80
2021/06/17 00:58:06;;;;;;;2.30;1.45;;;;;;;14.81;100.00;93351.00;5070029;28;20040;-81
2021/06/17 01:00:33;;;;;;;1.83;1.52;;;;;;;14.79;100.00;93342.72;5069834;28;20499;-82
2021/06/17 01:03:00;;;;;;;3.13;1.80;;;;;;;14.84;100.00;93355.72;5069830;28;20066;-82
2021/06/17 01:05:29;;;;;;;4.00;1.45;;;;;;;14.85;100.00;93359.88;5069920;28;20040;-82
2021/06/17 01:08:12;;;;;;;3.00;1.80;;;;;;;14.84;100.00;93360.91;5069770;28;20056;-82
2021/06/17 01:10:47;;;;;;;4.10;1.50;;;;;;;14.78;100.00;93349.69;5069434;28;20598;-82
2021/06/17 01:13:20;;;;;;;1.83;1.25;;;;;;;14.67;100.00;93348.69;5069928;28;20056;-82
2021/06/17 01:15:56;;;;;;;2.13;1.67;;;;;;;14.68;100.00;93360.59;5069577;28;20055;-82
2021/06/17 01:18:23;;;;;;;;;;;;;;;14.65;100.00;93363.66;5070340;28;20193;-81
2021/06/17 01:20:53;;;;;;;2.88;1.50;;;;;;;14.57;100.00;93353.66;5069606;28;19920;-80
2021/06/17 01:24:02;;;;;;;2.50;1.40;;;;;;;14.34;100.00;93334.66;5069111;28;20090;-79
2021/06/17 01:26:38;;;;;;;2.40;1.30;;;;;;;14.48;100.00;93365.41;5069423;28;20488;-79
2021/06/17 01:29:11;;;;;;;3.10;1.80;;;;;;;14.44;100.00;93357.31;5069387;28;20052;-79
2021/06/17 01:31:38;;;;;;;2.30;1.63;;;;;;;14.36;100.00;93353.31;5069456;28;20419;-80
2021/06/17 01:34:05;;;;;;;2.63;1.58;;;;;;;14.33;100.00;93350.38;5069820;28;20058;-81
2021/06/17 01:36:36;;;;;;;2.20;1.50;;;;;;;14.27;100.00;93347.69;5069094;28;20419;-80
2021/06/17 01:39:07;;;;;;;3.92;1.70;;;;;;;14.20;100.00;93352.22;5069259;28;20052;-81
2021/06/17 01:41:38;;;;;;;3.13;2.00;;;;;;;14.13;100.00;93349.75;5069404;28;20059;-81
2021/06/17 01:44:09;;;;;;;4.38;1.42;;;;;;;14.08;100.00;93354.84;5069207;28;20052;-80
2021/06/17 01:46:37;;;;;;;2.33;1.42;;;;;;;14.01;100.00;93354.16;5069176;28;20049;-80
2021/06/17 01:49:05;;;;;;;2.85;1.35;;;;;;;13.86;100.00;93347.69;5069057;28;20059;-79
2021/06/17 01:51:33;;;;;;;2.20;1.00;;;;;;;13.90;100.00;93346.19;5069495;28;20059;-79
2021/06/17 01:54:01;;;;;;;2.45;1.40;;;;;;;13.86;100.00;93360.59;5068929;28;20055;-79
2021/06/17 01:56:28;;;;;;;2.53;1.65;;;;;;;13.80;100.00;93360.69;5069390;28;20045;-79
2021/06/17 01:58:57;;;;;;;3.28;1.55;;;;;;;13.76;100.00;93361.13;5069461;28;20053;-80
2021/06/17 02:01:30;;;;;;;2.97;1.30;;;;;;;13.76;100.00;93361.13;5069034;28;20045;-79
2021/06/17 02:03:58;;;;;;;2.65;1.60;;;;;;;13.80;100.00;93364.03;5068812;28;20528;-80
2021/06/17 02:06:27;;;;;;;2.40;1.60;;;;;;;13.78;100.00;93365.31;5069030;28;20094;-80
2021/06/17 02:08:56;;;;;;;2.97;1.58;;;;;;;13.75;100.00;93356.22;5069122;28;20059;-81
2021/06/17 02:11:24;;;;;;;11.77;1.73;;;;;;;13.81;100.00;93367.44;5069325;28;20049;-81
2021/06/17 02:13:53;;;;;;;2.30;1.63;;;;;;;13.67;100.00;93352.19;5068923;28;20055;-79
2021/06/17 02:16:21;;;;;;;2.65;1.50;;;;;;;13.75;100.00;93356.22;5068980;28;20177;-79
2021/06/17 02:18:50;;;;;;;2.63;1.77;;;;;;;13.76;100.00;93360.38;5068951;28;20090;-79
2021/06/17 02:21:17;;;;;;;5.93;1.50;;;;;;;13.69;100.00;93357.09;5068653;28;20049;-78
2021/06/17 02:23:49;;;;;;;2.90;1.35;;;;;;;13.61;100.00;93355.66;5068798;28;20492;-79
2021/06/17 02:26:18;;;;;;;3.10;1.58;;;;;;;13.59;100.00;93368.78;5068788;28;20597;-78
2021/06/17 02:28:48;;;;;;;2.13;1.50;;;;;;;13.57;100.00;93373.38;5069000;28;20548;-78
2021/06/17 02:31:18;;;;;;;2.42;1.38;;;;;;;13.53;100.00;93377.41;5069057;28;20071;-78
2021/06/17 02:33:49;;;;;;;2.25;1.55;;;;;;;13.56;100.00;93378.78;5068975;28;20048;-78
2021/06/17 02:36:22;;;;;;;2.80;1.58;;;;;;;13.49;100.00;93377.09;5070748;28;20059;-81
2021/06/17 02:38:50;;;;;;;2.40;1.80;;;;;;;13.51;100.00;93378.66;5072503;28;20055;-79
2021/06/17 02:41:19;;;;;;;2.55;1.50;;;;;;;13.49;100.00;93381.44;5072321;28;20059;-78
2021/06/17 02:43:48;;;;;;;2.85;1.75;;;;;;;13.48;100.00;93372.13;5072931;28;20074;-78
2021/06/17 02:46:16;;;;;;;4.63;1.52;;;;;;;13.46;100.00;93364.63;5072281;28;20401;-78
2021/06/17 02:48:43;;;;;;;2.30;1.60;;;;;;;13.40;100.00;93365.47;5072545;28;20048;-78
2021/06/17 02:51:11;;;;;;;6.13;2.13;;;;;;;13.44;100.00;93370.97;5072261;28;20492;-78
2021/06/17 02:53:38;;;;;;;2.28;1.52;;;;;;;13.39;100.00;93363.91;5072302;28;20041;-79
2021/06/17 02:56:11;;;;;;;4.15;1.73;;;;;;;13.38;100.00;93371.88;5072464;28;20067;-78
2021/06/17 02:59:00;;;;;;;3.80;1.85;;;;;;;13.34;100.00;93379.28;5072611;28;20044;-78
2021/06/17 03:01:34;;;;;;;2.72;1.58;;;;;;;13.29;100.00;93374.00;5072141;28;20492;-77
2021/06/17 03:04:07;;;;;;;2.95;1.73;;;;;;;13.15;100.00;93363.84;5071979;28;20074;-77
2021/06/17 03:06:40;;;;;;;2.38;1.45;;;;;;;13.20;100.00;93376.13;5072165;28;20383;-79
2021/06/17 03:09:10;;;;;;;5.70;2.17;;;;;;;13.25;100.00;93383.97;5072251;28;20048;-79
2021/06/17 03:11:41;;;;;;;3.67;1.80;;;;;;;13.17;100.00;93385.06;5072154;28;20064;-79
2021/06/17 03:14:13;;;;;;;2.88;1.70;;;;;;;13.15;100.00;93371.59;5072194;28;20045;-79
2021/06/17 03:16:44;;;;;;;2.35;1.40;;;;;;;13.14;100.00;93370.03;5071697;28;20048;-78
2021/06/17 03:19:12;;;;;;;2.92;1.30;;;;;;;13.22;100.00;93380.03;5072177;28;20045;-78
2021/06/17 03:21:45;;;;;;;3.08;1.52;;;;;;;13.20;100.00;93365.78;5071845;28;20055;-78
2021/06/17 03:24:13;;;;;;;3.50;1.70;;;;;;;13.25;100.00;93386.56;5071732;28;20098;-78
2021/06/17 03:26:41;;;;;;;3.90;2.35;;;;;;;13.21;100.00;93382.84;5071420;28;20060;-77
2021/06/17 03:29:10;;;;;;;3.72;2.00;;;;;;;13.21;100.00;93375.09;5071817;28;20052;-78
2021/06/17 03:31:39;;;;;;;3.15;1.77;;;;;;;13.25;100.00;93378.00;5069093;28;20056;-78
2021/06/17 03:34:08;;;;;;;3.88;1.80;;;;;;;13.32;100.00;93376.91;5069541;28;20052;-78
2021/06/17 03:36:35;;;;;;;3.28;1.23;;;;;;;13.35;100.00;93386.81;5070712;28;20053;-78
2021/06/17 03:39:06;;;;;;;6.80;2.28;;;;;;;13.39;100.00;93383.75;5071194;28;20040;-77
2021/06/17 03:41:34;;;;;;;4.35;1.75;;;;;;;13.44;100.00;93387.25;5071224;28;20048;-77
2021/06/17 03:44:02;;;;;;;2.97;1.83;;;;;;;13.43;100.00;93380.50;5071376;28;20041;-78
2021/06/17 03:46:30;;;;;;;3.72;2.40;;;;;;;13.39;100.00;93374.25;5070777;28;20045;-78
2021/06/17 03:48:58;;;;;;;3.25;2.15;;;;;;;13.43;100.00;93385.66;5071064;28;20098;-78
2021/06/17 03:51:26;;;;;;;4.68;2.38;;;;;;;13.42;100.00;93376.34;5071333;28;20048;-78
2021/06/17 03:53:54;;;;;;;4.45;2.78;;;;;;;13.33;100.00;93362.22;5071319;28;20106;-78
2021/06/17 03:56:22;;;;;;;7.55;2.97;;;;;;;13.46;100.00;93374.94;5070693;28;20048;-78
2021/06/17 03:58:50;;;;;;;4.75;2.47;;;;;;;13.53;100.00;93381.78;5070877;28;20063;-78
2021/06/17 04:01:17;;;;;;;2.90;2.33;;;;;;;13.61;100.00;93389.97;5071002;28;20085;-78
2021/06/17 04:03:46;;;;;;;5.10;2.25;;;;;;;13.60;100.00;93391.00;5071253;28;20450;-78
2021/06/17 04:06:16;;;;;;;3.05;2.22;;;;;;;13.65;100.00;93397.28;5070662;28;20397;-78
2021/06/17 04:08:47;;;;;;;6.05;1.98;;;;;;;13.67;100.00;93398.63;5070591;28;20052;-78
2021/06/17 04:11:15;;;;;;;3.50;1.85;;;;;;;13.61;100.00;93378.88;5071016;28;20044;-78
2021/06/17 04:13:44;;;;;;;5.28;2.40;;;;;;;13.81;100.00;93395.81;5070982;28;20055;-78
2021/06/17 04:16:16;;;;;;;3.60;1.95;;;;;;;13.90;100.00;93400.41;5070572;28;20052;-78
2021/06/17 04:18:45;;;;;;;2.72;1.60;;;;;;;13.88;100.00;93379.22;5070727;28;20841;-78
2021/06/17 04:21:13;;;;;;;4.35;2.20;;;;;;;14.08;100.00;93395.38;5070449;28;20059;-78
2021/06/17 04:23:42;;;;;;;5.00;2.40;;;;;;;14.09;100.00;93389.19;5070706;28;20447;-78
2021/06/17 04:26:10;;;;;;;2.72;1.50;;;;;;;14.22;100.00;93396.69;5070436;28;20480;-78
2021/06/17 04:28:37;;;;;;;2.75;1.92;;;;;;;14.23;100.00;93389.72;5070101;28;20067;-78
2021/06/17 04:31:06;;;;;;;2.78;1.40;;;;;;;14.32;100.00;93403.06;5070380;28;20496;-78
2021/06/17 04:33:33;;;;;;;6.00;2.20;;;;;;;14.36;100.00;93393.84;5070592;28;20041;-78
2021/06/17 04:36:03;;;;;;;3.08;1.98;;;;;;;14.46;100.00;93396.66;5069959;28;20056;-78
2021/06/17 04:38:31;;;;;;;3.75;2.15;;;;;;;14.51;100.00;93401.91;5070532;28;20083;-78
2021/06/17 04:40:58;;;;;;;2.45;1.50;;;;;;;14.57;100.00;93401.00;5070288;28;20117;-78
2021/06/17 04:43:25;;;;;;;2.53;1.77;;;;;;;14.64;100.00;93402.66;5070472;28;20049;-78
2021/06/17 04:45:54;;;;;;;2.72;1.70;;;;;;;14.68;100.00;93401.19;5070322;28;20411;-78
2021/06/17 04:48:27;;;;;;;4.28;1.98;;;;;;;14.75;100.00;93403.66;5070194;28;20109;-78
2021/06/17 04:50:54;;;;;;;2.70;1.90;;;;;;;14.83;100.00;93404.06;5069969;28;20048;-77
2021/06/17 04:53:21;;;;;;;3.45;2.63;;;;;;;14.96;100.00;93407.41;5070072;28;20053;-78
2021/06/17 04:55:50;;;;;;;3.67;2.20;;;;;;;15.01;100.00;93409.28;5069883;28;20048;-78
2021/06/17 04:58:18;;;;;;;3.38;1.83;;;;;;;15.07;100.00;93404.00;5069213;28;20048;-77
2021/06/17 05:00:45;;;;;;;2.58;2.00;;;;;;;15.18;100.00;93399.75;5070049;28;20051;-78
2021/06/17 05:03:12;;;;;;;4.05;2.50;;;;;;;15.20;100.00;93396.94;5070046;28;20110;-77
2021/06/17 05:05:40;;;;;;;2.80;1.95;;;;;;;15.24;100.00;93379.94;5069712;28;20055;-78
2021/06/17 05:10:53;;;;;;;3.40;2.08;;;;;;;15.58;100.00;93403.25;5069733;28;20051;-77
2021/06/17 05:13:23;;;;;;;4.18;2.55;;;;;;;15.75;100.00;93418.75;5069675;28;20131;-77
2021/06/17 05:15:50;;;;;;;2.83;1.92;;;;;;;15.87;100.00;93418.69;5069847;28;20079;-77
2021/06/17 05:18:18;;;;;;;2.92;1.92;;;;;;;16.06;100.00;93425.44;5069710;28;20052;-77
2021/06/17 05:20:46;;;;;;;2.58;1.73;;;;;;;16.22;100.00;93427.22;5069827;28;20052;-77
2021/06/17 05:23:15;;;;;;;3.10;2.08;;;;;;;16.33;100.00;93422.19;5069790;28;20381;-77
2021/06/17 05:25:42;;;;;;;3.22;1.88;;;;;;;16.49;100.00;93426.53;5069460;28;20045;-77
2021/06/17 05:28:09;;;;;;;3.22;1.75;;;;;;;16.71;100.00;93430.91;5069415;28;20049;-77
2021/06/17 05:30:36;;;;;;;3.20;1.65;;;;;;;16.90;100.00;93441.75;5069278;28;20129;-77
2021/06/17 05:33:03;;;;;;;3.22;2.35;;;;;;;17.06;100.00;93437.56;5069623;28;20049;-77
2021/06/17 05:35:30;;;;;;;3.42;2.10;;;;;;;17.24;100.00;93440.84;5069344;28;20059;-77
2021/06/17 05:37:58;;;;;;;4.72;2.28;;;;;;;17.41;100.00;93438.13;5069364;28;20049;-77
2021/06/17 05:40:25;;;;;;;2.78;1.80;;;;;;;17.59;100.00;93444.78;5069565;28;20052;-77
2021/06/17 05:42:52;;;;;;;2.70;2.00;;;;;;;17.63;100.00;93416.47;5069295;28;20492;-77
2021/06/17 05:45:19;;;;;;;3.25;1.85;;;;;;;18.00;100.00;93444.28;5069048;28;20053;-77
2021/06/17 05:47:46;;;;;;;2.70;2.08;;;;;;;18.25;100.00;93440.34;5069532;28;20117;-77
2021/06/17 05:50:13;;;;;;;2.50;1.40;;;;;;;18.40;100.00;93444.03;5069209;28;20500;-77
2021/06/17 05:52:40;;;;;;;2.72;1.70;;;;;;;18.64;100.00;93452.22;5068954;28;20044;-77
2021/06/17 05:55:09;;;;;;;5.22;1.92;;;;;;;18.85;100.00;93443.69;5069020;28;20049;-77
2021/06/17 05:57:37;;;;;;;3.97;1.83;;;;;;;19.02;100.00;93435.69;5069338;28;20118;-77
2021/06/17 06:00:06;;;;;;;2.72;1.70;;;;;;;19.45;100.00;93451.16;5069042;28;20094;-77
2021/06/17 06:02:33;;;;;;;2.70;1.70;;;;;;;19.63;100.00;93463.66;5068088;28;20045;-77
2021/06/17 06:05:00;;;;;;;3.05;1.85;;;;;;;19.71;100.00;93462.38;5068945;28;20055;-77
2021/06/17 06:07:27;;;;;;;2.85;1.70;;;;;;;20.09;100.00;93471.78;5068784;28;20048;-78
2021/06/17 06:09:54;;;;;;;3.45;1.92;;;;;;;20.43;99.09;93460.75;5070377;28;20057;-78
2021/06/17 06:12:22;;;;;;;4.38;1.95;;;;;;;20.77;98.97;93457.53;5072966;28;20040;-78
2021/06/17 06:14:49;;;;;;;4.38;1.70;;;;;;;21.15;97.53;93462.31;5072974;28;20492;-78
2021/06/17 06:17:16;;;;;;;2.42;1.85;;;;;;;21.23;95.61;93430.44;5073165;28;20710;-78
2021/06/17 06:19:43;;;;;;;3.75;1.73;;;;;;;21.80;95.57;93460.63;5073205;28;20048;-78
2021/06/17 06:22:10;;;;;;;4.60;1.48;;;;;;;22.11;93.94;93462.19;5068968;28;20068;-78
2021/06/17 06:24:38;;;;;;;2.63;1.70;;;;;;;22.47;90.48;93469.72;5071406;28;20048;-78
2021/06/17 06:27:07;;;;;;;2.65;1.42;;;;;;;22.82;87.18;93462.53;5072942;28;20090;-78
2021/06/17 06:29:35;;;;;;;2.85;1.55;;;;;;;23.15;78.47;93461.88;5072566;28;20055;-78
2021/06/17 06:32:03;;;;;;;3.38;2.30;;;;;;;23.33;74.13;93455.13;5072486;28;20049;-78
2021/06/17 06:34:30;;;;;;;3.25;1.90;;;;;;;23.67;78.36;93455.16;5072463;28;20051;-79
2021/06/17 06:36:56;;;;;;;3.60;1.90;;;;;;;23.94;79.80;93448.44;5072464;28;20060;-79
2021/06/17 06:39:24;;;;;;;3.80;1.52;;;;;;;24.28;78.07;93442.13;5072397;28;20496;-79
2021/06/17 06:41:52;;;;;;;4.15;1.80;;;;;;;24.53;76.36;93446.13;5072453;28;20044;-79
2021/06/17 06:44:19;;;;;;;2.40;1.50;;;;;;;24.72;70.11;93450.53;5071845;28;20048;-79
2021/06/17 06:46:47;;;;;;;3.13;1.80;;;;;;;24.53;68.30;93451.38;5072343;28;20523;-78
2021/06/17 06:49:14;;;;;;;4.65;2.03;;;;;;;24.73;73.34;93448.66;5072499;28;20056;-79
2021/06/17 06:51:41;;;;;;;6.68;3.25;;;;;;;25.04;74.29;93450.69;5072309;28;20044;-78
2021/06/17 06:54:08;;;;;;;3.67;1.95;;;;;;;25.20;70.36;93451.94;5072264;28;20049;-79
2021/06/17 06:56:35;;;;;;;3.05;1.77;;;;;;;25.04;67.74;93454.09;5072344;28;20052;-79
2021/06/17 06:59:02;;;;;;;2.97;1.45;;;;;;;24.97;71.98;93450.31;5072420;28;20761;-79
2021/06/17 07:01:29;;;;;;;2.97;1.02;;;;;;;25.05;65.45;93453.00;5072279;28;20052;-78
2021/06/17 07:03:57;;;;;;;3.28;1.73;;;;;;;24.58;68.32;93454.97;5071749;28;20831;-79
2021/06/17 07:06:24;;;;;;;3.65;1.90;;;;;;;24.35;70.21;93458.25;5072086;28;20048;-79
2021/06/17 07:08:51;;;;;;;3.03;1.38;;;;;;;24.85;72.68;93448.19;5071836;28;20114;-79
2021/06/17 07:11:18;;;;;;;6.38;1.67;;;;;;;24.76;71.43;93454.09;5071632;28;20040;-79
2021/06/17 07:13:45;;;;;;;3.13;1.75;;;;;;;24.84;70.06;93462.41;5071607;28;20488;-79
2021/06/17 07:16:11;;;;;;;3.22;1.90;;;;;;;24.53;69.36;93461.13;5071551;28;20048;-78
2021/06/17 07:18:38;;;;;;;3.53;1.30;;;;;;;24.18;73.14;93456.22;5071382;28;20049;-79
2021/06/17 07:21:08;;;;;;;3.20;1.88;;;;;;;24.38;70.52;93467.41;5070275;28;20524;-79
2021/06/17 07:23:36;;;;;;;4.35;2.00;;;;;;;24.66;69.15;93457.72;5071494;28;20489;-78
2021/06/17 07:26:04;;;;;;;2.25;1.30;;;;;;;24.98;71.43;93457.13;5071560;28;20086;-79
2021/06/17 07:28:31;;;;;;;2.45;1.45;;;;;;;24.49;71.09;93452.25;5071874;28;20044;-79
2021/06/17 07:30:57;;;;;;;2.17;1.20;;;;;;;24.28;72.43;93450.78;5071601;28;20052;-79
2021/06/17 07:33:24;;;;;;;3.58;1.85;;;;;;;24.36;72.84;93440.69;5071408;28;20507;-79
2021/06/17 07:35:51;;;;;;;2.88;1.67;;;;;;;24.58;67.58;93450.53;5071489;28;20060;-79
2021/06/17 07:38:19;;;;;;;3.20;1.67;;;;;;;24.43;69.96;93456.81;5071200;28;20097;-79
2021/06/17 07:40:46;;;;;;;5.95;1.40;;;;;;;24.65;69.17;93458.00;5071387;28;20492;-79
2021/06/17 07:43:13;;;;;;;2.90;1.48;;;;;;;25.04;65.50;93454.09;5071276;28;20419;-79
2021/06/17 07:45:40;;;;;;;3.03;1.63;;;;;;;25.47;68.88;93449.53;5071294;28;20040;-80
2021/06/17 07:48:10;;;;;;;2.03;1.30;;;;;;;25.88;64.70;93451.22;5071343;28;20443;-80
2021/06/17 07:50:38;;;;;;;14.27;1.67;;;;;;;26.23;64.66;93434.88;5070891;28;20056;-80
2021/06/17 07:53:05;;;;;;;4.82;1.60;;;;;;;26.65;61.28;93458.28;5071020;28;20060;-80
2021/06/17 07:55:34;;;;;;;2.70;1.55;;;;;;;26.80;60.86;93451.03;5071384;28;20059;-79
2021/06/17 07:58:00;;;;;;;2.22;1.20;;;;;;;26.72;58.42;93463.09;5071036;28;20428;-80
2021/06/17 08:00:29;;;;;;;1.95;1.05;;;;;;;27.00;56.95;93459.47;5071182;28;20114;-80
2021/06/17 08:02:57;;;;;;;2.47;1.35;;;;;;;26.87;56.87;93455.84;5070740;28;20048;-80
2021/06/17 08:05:24;;;;;;;2.25;1.33;;;;;;;26.39;56.49;93456.31;5070974;28;20049;-80
2021/06/17 08:07:51;;;;;;;2.03;1.27;;;;;;;26.50;57.30;93454.19;5071159;28;20048;-79
2021/06/17 08:10:18;;;;;;;1.83;1.20;;;;;;;26.09;58.21;93442.81;5070796;28;20408;-79
2021/06/17 08:12:46;;;;;;;2.05;1.00;;;;;;;25.92;54.14;93432.22;5071071;28;20052;-79
2021/06/17 08:15:13;;;;;;;1.30;0.85;;;;;;;26.59;57.63;93448.16;5070950;28;20048;-80
2021/06/17 08:17:40;;;;;;;2.72;1.83;;;;;;;27.12;57.37;93443.81;5070427;28;20048;-80
2021/06/17 08:20:08;;;;;;;2.33;1.30;;;;;;;27.21;57.29;93446.47;5070415;28;20518;-79
2021/06/17 08:22:36;;;;;;;3.58;1.48;;;;;;;27.38;52.37;93445.72;5070248;28;20059;-79
2021/06/17 08:25:04;;;;;;;1.63;0.90;;;;;;;27.76;55.59;93436.41;5070594;28;20052;-79
2021/06/17 08:27:31;;;;;;;3.17;1.20;;;;;;;27.60;51.86;93442.16;5070279;28;20041;-80
2021/06/17 08:29:59;;;;;;;2.20;1.08;;;;;;;27.61;54.54;93419.97;5070348;28;20044;-79
2021/06/17 08:32:26;;;;;;;4.60;1.40;;;;;;;27.97;54.67;93435.75;5070137;28;20044;-79
2021/06/17 08:34:53;;;;;;;2.40;1.40;;;;;;;27.36;54.27;93442.63;5070034;28;20102;-80
2021/06/17 08:37:20;;;;;;;2.03;1.10;;;;;;;26.74;56.57;93437.22;5069786;28;20053;-79
2021/06/17 08:39:46;;;;;;;4.10;1.35;;;;;;;26.24;59.85;93438.28;5070531;28;20053;-79
2021/06/17 08:42:13;;;;;;;2.13;1.20;;;;;;;25.80;59.68;93433.53;5070058;28;20090;-79
2021/06/17 08:44:41;;;;;;;2.35;1.05;;;;;;;26.32;59.53;93426.22;5069905;28;20598;-79
2021/06/17 08:47:10;;;;;;;2.78;1.33;;;;;;;26.69;56.74;93405.75;5070334;28;20056;-79
2021/06/17 08:49:37;;;;;;;3.65;1.50;;;;;;;27.05;54.89;93417.16;5069718;28;20056;-79
2021/06/17 08:52:07;;;;;;;2.47;1.05;;;;;;;27.26;55.37;93421.81;5070027;28;20049;-79
2021/06/17 08:54:34;;;;;;;1.90;1.20;;;;;;;27.42;55.77;93424.75;5070266;28;20048;-79
2021/06/17 08:57:00;;;;;;;1.80;0.88;;;;;;;27.12;54.03;93435.16;5069555;28;20052;-79
2021/06/17 08:59:31;;;;;;;1.67;0.90;;;;;;;27.50;54.64;93416.06;5069738;28;20414;-80
2021/06/17 09:02:00;;;;;;;2.50;1.42;;;;;;;27.80;52.57;93426.78;5069682;28;20048;-79
2021/06/17 09:04:30;;;;;;;2.92;1.65;;;;;;;27.72;53.72;93409.88;5069872;28;20063;-79
2021/06/17 09:07:06;;;;;;;2.30;1.40;;;;;;;27.82;51.85;93419.31;5069438;28;20131;-79
2021/06/17 09:09:35;;;;;;;2.95;1.63;;;;;;;27.53;54.40;93425.22;5069474;28;20539;-80
2021/06/17 09:12:02;;;;;;;1.70;1.20;;;;;;;27.93;51.71;93419.75;5069688;28;20106;-79
2021/06/17 09:14:29;;;;;;;4.18;1.52;;;;;;;28.53;52.30;93419.13;5069760;28;20044;-79
2021/06/17 09:17:00;;;;;;;2.05;1.40;;;;;;;28.38;52.35;93412.50;5069701;28;20465;-79
2021/06/17 09:19:47;;;;;;;2.65;1.40;;;;;;;27.86;54.36;93417.59;5069405;28;20522;-79
2021/06/17 09:22:15;;;;;;;2.35;1.42;;;;;;;27.56;54.95;93412.19;5069748;28;20454;-79
2021/06/17 09:24:45;;;;;;;3.28;1.40;;;;;;;27.06;55.70;93419.47;5069632;28;20044;-80
2021/06/17 09:27:23;;;;;;;2.40;1.38;;;;;;;26.86;54.94;93415.56;5069778;28;20504;-79
2021/06/17 09:29:52;;;;;;;2.28;1.42;;;;;;;26.66;56.40;93393.94;5069060;28;20056;-79
2021/06/17 09:32:21;;;;;;;4.72;1.70;;;;;;;27.12;55.96;93385.06;5069500;28;20412;-79
2021/06/17 09:34:49;;;;;;;2.22;1.35;;;;;;;27.49;53.17;93369.66;5069452;28;20056;-79
2021/06/17 09:37:34;;;;;;;2.55;1.42;;;;;;;28.00;57.01;93390.25;5069426;28;20060;-79
2021/06/17 09:40:20;;;;;;;;;;;;;;;28.47;54.43;93392.09;5069664;28;20045;-80
2021/06/17 09:42:47;;;;;;;2.95;1.50;;;;;;;28.63;53.71;93388.91;5069403;28;20018;-80
2021/06/17 09:45:17;;;;;;;1.98;1.20;;;;;;;27.59;52.13;93401.03;5068852;28;20063;-80
2021/06/17 09:47:45;;;;;;;2.20;1.33;;;;;;;27.49;51.88;93382.84;5069111;28;20488;-81
2021/06/17 09:50:28;;;;;;;4.07;1.90;;;;;;;27.64;54.09;93386.91;5068805;28;20102;-81
2021/06/17 09:52:56;;;;;;;2.80;1.65;;;;;;;27.39;54.75;93372.66;5067484;28;20416;-80
2021/06/17 09:55:37;;;;;;;3.25;1.60;;;;;;;27.57;54.04;93386.56;5068992;28;20048;-80
2021/06/17 09:58:05;;;;;;;2.45;1.90;;;;;;;27.64;53.73;93378.22;5070199;28;20500;-80
2021/06/17 10:00:31;;;;;;;2.10;1.50;;;;;;;27.45;50.17;93380.06;5080232;28;20070;-80
2021/06/17 10:03:14;;;;;;;2.00;1.45;;;;;;;27.47;52.55;93372.63;5077380;28;20052;-80
2021/06/17 10:05:42;;;;;;;2.38;1.60;;;;;;;27.67;54.35;93382.88;5078238;28;20044;-80
2021/06/17 10:08:09;;;;;;;2.15;1.25;;;;;;;27.57;54.27;93368.09;5077512;28;20044;-80
2021/06/17 10:10:37;;;;;;;1.95;1.17;;;;;;;27.56;53.99;93363.91;5078655;28;20708;-80
2021/06/17 10:13:04;;;;;;;3.45;1.25;;;;;;;27.55;53.75;93370.28;5077305;28;20504;-80
2021/06/17 10:15:32;;;;;;;2.08;1.30;;;;;;;27.35;54.09;93346.09;5076456;28;20114;-80
2021/06/17 10:17:59;;;;;;;2.35;1.48;;;;;;;27.24;54.87;93364.09;5068791;28;20094;-80
2021/06/17 10:20:26;;;;;;;2.40;1.20;;;;;;;26.06;54.60;93376.84;5067671;28;20052;-80
2021/06/17 10:22:55;;;;;;;2.35;1.38;;;;;;;26.05;56.93;93367.41;5087108;28;20073;-81
2021/06/17 10:25:26;;;;;;;1.83;1.20;;;;;;;26.17;56.62;93370.25;5088981;28;20052;-80
2021/06/17 10:27:57;;;;;;;1.73;1.23;;;;;;;26.35;57.41;93367.69;5088949;28;20055;-80
2021/06/17 10:30:41;;;;;;;1.70;1.10;;;;;;;26.30;55.06;93358.09;5089099;28;20128;-80
2021/06/17 10:33:08;;;;;;;2.08;1.10;;;;;;;26.44;54.71;93357.97;5088872;28;20091;-80
2021/06/17 10:35:35;;;;;;;1.60;1.20;;;;;;;26.69;53.21;93363.59;5088771;28;20441;-79
2021/06/17 10:38:05;;;;;;;1.80;1.13;;;;;;;26.94;53.03;93346.28;5086683;28;20071;-80
2021/06/17 10:40:35;;;;;;;4.35;1.38;;;;;;;27.57;53.17;93347.00;5081914;28;20151;-80
2021/06/17 10:43:20;;;;;;;1.90;1.00;;;;;;;28.20;49.40;93349.16;5087672;28;20076;-80
2021/06/17 10:45:48;;;;;;;3.55;1.48;;;;;;;27.95;49.24;93342.91;5088779;28;20056;-80
2021/06/17 10:48:20;;;;;;;1.90;1.20;;;;;;;28.59;51.38;93340.44;5088861;28;20462;-80
2021/06/17 10:50:53;;;;;;;2.40;1.15;;;;;;;27.82;49.34;93337.47;5086869;28;20495;-80
2021/06/17 10:53:44;;;;;;;2.20;0.88;;;;;;;27.13;50.79;93329.38;5081879;28;20053;-80
2021/06/17 10:56:16;;;;;;;1.85;0.95;;;;;;;26.50;50.67;93338.31;5068789;28;20140;-80
2021/06/17 10:59:04;;;;;;;1.55;0.70;;;;;;;26.63;50.82;93343.75;5072151;28;20048;-80
2021/06/17 11:01:40;;;;;;;1.67;0.70;;;;;;;26.70;50.73;93338.03;5072273;28;20131;-80
2021/06/17 11:04:18;;;;;;;1.80;0.98;;;;;;;26.83;50.24;93329.19;5072256;28;20084;-80
2021/06/17 11:07:21;;;;;;;1.08;0.63;;;;;;;27.48;49.82;93313.50;5071696;28;20052;-81
2021/06/17 11:10:02;;;;;;;2.47;1.70;;;;;;;28.14;48.38;93316.88;5071722;28;20546;-81
2021/06/17 11:12:53;;;;;;;1.83;0.45;;;;;;;28.59;46.19;93314.78;5071737;28;20067;-80
2021/06/17 11:15:42;;;;;;;1.77;0.80;;;;;;;28.79;45.44;93315.88;5083255;28;20040;-81
2021/06/17 11:18:09;;;;;;;2.40;0.98;;;;;;;28.38;44.20;93314.75;5084079;28;20044;-80
2021/06/17 11:20:40;;;;;;;2.10;0.50;;;;;;;28.06;45.20;93301.84;5078967;28;20487;-81
2021/06/17 11:23:07;;;;;;;1.38;0.73;;;;;;;27.63;48.14;93318.63;5082543;28;20055;-80
2021/06/17 11:25:39;;;;;;;5.30;0.88;;;;;;;26.90;48.71;93316.31;5076249;28;20041;-80
2021/06/17 11:28:08;;;;;;;1.00;0.55;;;;;;;26.08;46.94;93319.41;5071741;28;20151;-80
2021/06/17 11:30:57;;;;;;;1.77;0.80;;;;;;;26.24;49.70;93330.34;5071280;28;20542;-81
2021/06/17 11:33:44;;;;;;;1.30;0.70;;;;;;;26.50;49.30;93326.97;5071682;28;20066;-81
2021/06/17 11:36:14;;;;;;;1.77;0.90;;;;;;;26.80;49.81;93317.41;5071357;28;20054;-81
2021/06/17 11:38:42;;;;;;;1.38;0.85;;;;;;;27.42;48.35;93313.97;5071168;28;20492;-81
2021/06/17 11:41:16;;;;;;;1.58;0.80;;;;;;;28.15;47.79;93309.72;5071419;28;20051;-81
2021/06/17 11:43:44;;;;;;;1.73;0.85;;;;;;;28.40;47.10;93310.72;5071314;28;20052;-81